Time;durP1;ratioP1;P1;durP2;ratioP2;P2;SDS_P1;SDS_P2;PMS_P1;PMS_P2;Temp;Humidity;BMP_temperature;BMP_pressure;BME280_temperature;BME280_humidity;BME280_pressure;Samples;Min_cycle;Max_cycle;Signal;HPM_P1;HPM_P2
2022/03/11 00:02:22;;;;;;;18.60;9.77;;;;;;;7.54;40.45;100766.22;4998211;28;20425;-76
2022/03/11 00:05:07;;;;;;;15.68;8.27;;;;;;;7.57;40.23;100768.66;5013255;28;20052;-76
2022/03/11 00:07:51;;;;;;;12.05;8.10;;;;;;;7.58;39.85;100765.03;4998482;28;20072;-74
2022/03/11 00:10:35;;;;;;;18.35;8.90;;;;;;;7.60;40.29;100766.63;4997749;28;20104;-75
2022/03/11 00:13:19;;;;;;;13.10;7.90;;;;;;;7.53;40.38;100767.19;4998083;28;20108;-75
2022/03/11 00:16:04;;;;;;;16.27;8.23;;;;;;;7.50;40.40;100758.59;5013332;28;20044;-76
2022/03/11 00:18:48;;;;;;;25.00;10.95;;;;;;;7.42;40.54;100761.84;5013031;28;20053;-76
2022/03/11 00:21:32;;;;;;;31.35;13.88;;;;;;;7.28;40.90;100758.50;4998145;28;20119;-76
2022/03/11 00:24:16;;;;;;;57.95;27.85;;;;;;;7.18;41.10;100755.63;5013517;28;20048;-76
2022/03/11 00:27:00;;;;;;;35.92;16.42;;;;;;;7.10;41.05;100758.00;4984523;28;20044;-76
2022/03/11 00:29:44;;;;;;;25.40;11.98;;;;;;;7.06;41.77;100756.53;5013050;28;20508;-76
2022/03/11 00:32:28;;;;;;;25.55;11.82;;;;;;;6.96;41.53;100750.19;4984675;28;20057;-76
2022/03/11 00:35:12;;;;;;;23.15;10.15;;;;;;;6.88;42.30;100765.78;5012806;28;20104;-76
2022/03/11 00:37:56;;;;;;;33.08;14.02;;;;;;;6.71;42.74;100766.16;4984230;28;20121;-75
2022/03/11 00:40:40;;;;;;;52.28;20.60;;;;;;;6.60;42.42;100766.06;5013046;28;20362;-74
2022/03/11 00:43:27;;;;;;;;;;;;;;;6.58;42.96;100767.94;5013063;28;20111;-76
2022/03/11 00:46:11;;;;;;;16.83;9.23;;;;;;;6.50;43.35;100759.72;4998032;28;20282;-76
2022/03/11 00:48:55;;;;;;;10.55;6.43;;;;;;;6.33;43.72;100757.38;4998097;28;20425;-76
2022/03/11 00:51:39;;;;;;;9.70;6.25;;;;;;;6.29;44.01;100760.34;4998257;28;20112;-75
2022/03/11 00:54:24;;;;;;;10.50;5.70;;;;;;;6.17;44.04;100751.44;5012762;28;20048;-76
2022/03/11 00:57:08;;;;;;;11.45;5.63;;;;;;;6.03;44.82;100759.47;4997787;28;20101;-75
2022/03/11 00:59:52;;;;;;;11.85;5.65;;;;;;;5.87;45.71;100757.97;4997892;28;20053;-76
2022/03/11 01:02:38;;;;;;;11.23;6.53;;;;;;;5.74;46.30;100757.91;4997808;28;20089;-75
2022/03/11 01:05:22;;;;;;;9.63;5.57;;;;;;;5.64;45.84;100763.91;4997720;28;20052;-76
2022/03/11 01:08:06;;;;;;;10.30;6.10;;;;;;;5.53;46.48;100753.19;5012632;28;20092;-76
2022/03/11 01:10:50;;;;;;;10.95;5.65;;;;;;;5.41;46.84;100746.91;4997812;28;20517;-74
2022/03/11 01:13:35;;;;;;;9.93;5.82;;;;;;;5.39;46.69;100750.59;4997475;28;20048;-76
2022/03/11 01:16:19;;;;;;;8.65;5.85;;;;;;;5.51;46.61;100750.66;4997443;28;20049;-76
2022/03/11 01:19:03;;;;;;;9.65;5.90;;;;;;;5.59;46.33;100745.69;4997607;28;20088;-76
2022/03/11 01:21:47;;;;;;;9.25;5.72;;;;;;;5.67;46.11;100740.75;4998309;28;20052;-75
2022/03/11 01:24:32;;;;;;;13.10;6.22;;;;;;;5.57;46.36;100739.69;5001099;28;20200;-76
2022/03/11 01:27:16;;;;;;;10.05;5.70;;;;;;;5.55;46.89;100736.25;5016169;28;20127;-76
2022/03/11 01:29:59;;;;;;;10.70;6.05;;;;;;;5.71;46.19;100725.50;5001040;28;20129;-76
2022/03/11 01:32:43;;;;;;;10.38;5.90;;;;;;;5.81;46.36;100731.91;5001403;28;20124;-75
2022/03/11 01:35:28;;;;;;;11.52;6.50;;;;;;;6.05;45.29;100730.28;5015826;28;20044;-76
2022/03/11 01:38:12;;;;;;;10.30;5.43;;;;;;;6.08;46.02;100725.63;5001169;28;20060;-75
2022/03/11 01:40:56;;;;;;;11.15;6.30;;;;;;;6.12;46.08;100731.53;4987696;28;20500;-74
2022/03/11 01:43:50;;;;;;;12.70;6.75;;;;;;;6.01;46.08;100732.28;5001075;28;20045;-76
2022/03/11 01:46:36;;;;;;;13.02;6.25;;;;;;;5.85;47.09;100722.84;5016133;28;20037;-76
2022/03/11 01:49:20;;;;;;;9.18;6.03;;;;;;;5.85;47.12;100728.13;5000869;28;20418;-76
2022/03/11 01:52:04;;;;;;;10.73;5.95;;;;;;;5.77;47.91;100735.69;5000655;28;20053;-75
2022/03/11 01:54:49;;;;;;;13.52;6.82;;;;;;;5.78;48.11;100732.94;5015925;28;20235;-76
2022/03/11 01:57:36;;;;;;;12.27;6.10;;;;;;;5.89;47.78;100729.59;5000832;28;20145;-76
2022/03/11 02:00:20;;;;;;;12.30;6.60;;;;;;;6.02;47.79;100728.66;4986719;28;20517;-76
2022/03/11 02:03:05;;;;;;;14.50;7.78;;;;;;;6.13;47.53;100730.56;5000561;28;20112;-76
2022/03/11 02:05:49;;;;;;;13.23;6.57;;;;;;;6.05;48.40;100725.81;5000388;28;20064;-76
2022/03/11 02:08:34;;;;;;;14.23;7.80;;;;;;;6.11;48.54;100730.69;4986854;28;20632;-76
2022/03/11 02:11:18;;;;;;;15.80;6.88;;;;;;;6.08;48.63;100727.41;4986521;28;20084;-75
2022/03/11 02:14:02;;;;;;;16.17;8.55;;;;;;;5.92;49.63;100726.75;5000595;28;20528;-76
2022/03/11 02:16:46;;;;;;;12.50;7.40;;;;;;;5.93;50.62;100723.16;5000312;28;20505;-75
2022/03/11 02:19:30;;;;;;;13.02;7.55;;;;;;;5.87;50.25;100715.63;5015049;28;20103;-76
2022/03/11 02:22:15;;;;;;;15.18;9.02;;;;;;;5.92;50.36;100719.66;5015287;28;20153;-76
2022/03/11 02:24:59;;;;;;;12.23;7.85;;;;;;;5.95;51.18;100722.09;4986513;28;20049;-74
2022/03/11 02:27:46;;;;;;;13.80;8.40;;;;;;;5.94;51.22;100716.91;5000303;28;20056;-76
2022/03/11 02:30:30;;;;;;;15.27;9.00;;;;;;;5.89;51.52;100714.59;5000490;28;20107;-76
2022/03/11 02:33:14;;;;;;;14.85;8.80;;;;;;;5.90;52.03;100712.78;5014322;28;20120;-76
2022/03/11 02:35:58;;;;;;;16.02;8.48;;;;;;;5.96;51.50;100710.53;4999925;28;20480;-76
2022/03/11 02:38:41;;;;;;;18.95;8.55;;;;;;;6.02;51.77;100710.16;4999851;28;20057;-76
2022/03/11 02:41:25;;;;;;;14.95;8.73;;;;;;;5.99;51.94;100710.38;4999775;28;20119;-76
2022/03/11 02:44:10;;;;;;;15.00;8.90;;;;;;;5.96;52.56;100709.72;5048861;23;20114;-74
2022/03/11 02:46:54;;;;;;;15.52;8.75;;;;;;;5.72;53.33;100721.91;5038173;28;20511;-74
2022/03/11 02:49:38;;;;;;;;;;;;;;;5.66;54.09;100709.94;5054184;28;20129;-74
2022/03/11 02:52:22;;;;;;;12.88;8.20;;;;;;;5.46;54.44;100710.41;5051994;28;20395;-74
2022/03/11 02:55:06;;;;;;;14.45;8.98;;;;;;;5.38;56.07;100707.47;5037842;28;20155;-74
2022/03/11 02:57:50;;;;;;;15.50;9.38;;;;;;;5.39;56.22;100703.88;5053478;28;20389;-74
2022/03/11 03:00:34;;;;;;;14.50;9.07;;;;;;;5.21;56.62;100699.78;5053084;28;20048;-74
2022/03/11 03:03:17;;;;;;;15.18;8.88;;;;;;;5.05;57.29;100698.22;5053043;28;20548;-74
2022/03/11 03:06:03;;;;;;;17.70;9.60;;;;;;;4.94;58.12;100690.97;5037805;28;20083;-74
2022/03/11 03:08:47;;;;;;;16.85;9.18;;;;;;;4.85;59.16;100693.38;5037931;28;20049;-74
2022/03/11 03:11:31;;;;;;;19.35;10.25;;;;;;;4.76;60.67;100701.88;5037678;28;20134;-74
2022/03/11 03:14:15;;;;;;;16.88;9.25;;;;;;;4.80;60.79;100698.09;5053065;28;20098;-74
2022/03/11 03:16:59;;;;;;;19.70;10.27;;;;;;;4.73;61.83;100698.59;5052583;28;20055;-74
2022/03/11 03:19:42;;;;;;;14.35;9.07;;;;;;;4.70;61.35;100696.97;5037556;28;20110;-74
2022/03/11 03:22:26;;;;;;;15.98;9.07;;;;;;;4.61;61.26;100702.00;5023699;28;20115;-74
2022/03/11 03:25:10;;;;;;;15.95;8.90;;;;;;;4.40;61.65;100700.72;5037487;28;20141;-74
2022/03/11 03:27:54;;;;;;;16.02;8.80;;;;;;;4.28;61.96;100699.66;5037483;28;20137;-73
2022/03/11 03:30:38;;;;;;;13.68;8.40;;;;;;;4.17;63.06;100709.19;5052778;28;20466;-74
2022/03/11 03:33:22;;;;;;;16.23;9.13;;;;;;;4.02;63.66;100707.47;5037658;28;20047;-74
2022/03/11 03:36:06;;;;;;;16.48;9.07;;;;;;;3.88;64.82;100700.38;5023403;28;20052;-74
2022/03/11 03:38:50;;;;;;;;;;;;;;;3.76;66.05;100705.56;5052799;28;20098;-74
2022/03/11 03:41:35;;;;;;;16.10;8.00;;;;;;;3.72;66.36;100709.31;5037249;28;19935;-74
2022/03/11 03:44:18;;;;;;;18.27;9.40;;;;;;;3.74;66.34;100715.38;5015300;28;1071721;-74
2022/03/11 03:47:04;;;;;;;16.75;9.52;;;;;;;3.73;66.97;100716.28;5053041;28;20106;-74
2022/03/11 03:49:48;;;;;;;15.55;8.40;;;;;;;3.64;67.29;100707.13;5053036;28;20102;-73
2022/03/11 03:52:33;;;;;;;14.50;9.13;;;;;;;3.48;68.58;100705.47;5052991;28;20146;-74
2022/03/11 03:55:17;;;;;;;18.27;10.07;;;;;;;3.41;69.74;100709.41;5037648;28;20174;-75
2022/03/11 03:58:01;;;;;;;16.75;9.20;;;;;;;3.31;70.50;100711.72;5053099;28;20531;-74
2022/03/11 04:00:45;;;;;;;18.23;9.75;;;;;;;3.25;71.31;100713.88;5037677;28;20075;-75
2022/03/11 04:03:29;;;;;;;17.65;10.50;;;;;;;3.25;71.91;100719.16;5037613;28;20098;-73
2022/03/11 04:06:13;;;;;;;17.35;9.32;;;;;;;3.25;72.76;100719.16;5037872;28;20098;-73
2022/03/11 04:08:58;;;;;;;24.55;9.70;;;;;;;3.23;73.49;100718.38;5052701;28;20167;-74
2022/03/11 04:11:42;;;;;;;13.93;8.05;;;;;;;3.18;74.36;100717.78;5037521;28;20060;-74
2022/03/11 04:14:27;;;;;;;15.75;9.13;;;;;;;3.13;75.11;100722.47;5052564;28;20064;-74
2022/03/11 04:17:11;;;;;;;17.30;9.77;;;;;;;3.05;75.91;100711.53;5023933;28;20055;-74
2022/03/11 04:19:55;;;;;;;17.17;9.55;;;;;;;3.02;76.99;100712.53;5037506;28;20052;-74
2022/03/11 04:22:43;;;;;;;18.38;10.25;;;;;;;2.97;78.43;100713.72;5052554;28;20594;-73
2022/03/11 04:25:27;;;;;;;20.13;10.25;;;;;;;2.94;78.45;100708.66;5052406;28;20520;-73
2022/03/11 04:28:11;;;;;;;19.05;10.30;;;;;;;2.83;78.77;100713.66;5037857;28;20515;-74
2022/03/11 04:30:55;;;;;;;33.72;11.40;;;;;;;2.75;80.07;100711.44;5037404;28;20059;-75
2022/03/11 04:33:40;;;;;;;19.35;10.40;;;;;;;2.73;81.20;100705.41;5052370;28;20191;-75
2022/03/11 04:36:24;;;;;;;17.52;10.30;;;;;;;2.76;81.13;100714.94;5052321;28;20477;-75
2022/03/11 04:39:08;;;;;;;18.83;10.65;;;;;;;2.74;81.22;100719.44;5037239;28;20467;-74
2022/03/11 04:41:53;;;;;;;;;;;;;;;2.70;81.91;100720.50;5024199;28;20043;-74
2022/03/11 04:44:36;;;;;;;19.90;11.60;;;;;;;2.61;82.65;100721.03;5037116;28;19979;-74
2022/03/11 04:47:21;;;;;;;21.08;11.30;;;;;;;2.54;83.84;100727.56;5037210;28;20405;-73
2022/03/11 04:50:05;;;;;;;19.63;11.02;;;;;;;2.48;84.27;100725.25;5037225;28;20461;-74
2022/03/11 04:52:49;;;;;;;22.15;11.13;;;;;;;2.43;85.59;100722.03;5052216;28;20059;-74
2022/03/11 04:55:33;;;;;;;23.48;11.20;;;;;;;2.42;86.41;100715.06;5052074;28;20068;-71
2022/03/11 04:58:17;;;;;;;23.05;12.52;;;;;;;2.36;87.24;100720.66;5039969;28;20047;-74
2022/03/11 05:01:01;;;;;;;22.10;12.18;;;;;;;2.39;88.24;100728.38;5041487;28;20100;-74
2022/03/11 05:03:45;;;;;;;20.73;12.40;;;;;;;2.39;88.27;100735.44;5027189;28;20058;-75
2022/03/11 05:06:29;;;;;;;24.15;12.45;;;;;;;2.37;88.10;100727.63;5056273;28;20480;-74
2022/03/11 05:09:13;;;;;;;22.48;12.13;;;;;;;2.35;88.90;100726.00;5040869;28;20048;-75
2022/03/11 05:11:56;;;;;;;24.45;12.90;;;;;;;2.28;89.50;100728.09;5027291;28;20210;-74
2022/03/11 05:14:40;;;;;;;22.83;12.32;;;;;;;2.21;89.36;100716.22;5040664;28;20507;-74
2022/03/11 05:17:24;;;;;;;21.13;12.00;;;;;;;2.20;90.53;100722.41;5055871;28;20121;-74
2022/03/11 05:20:09;;;;;;;;;;;;;;;2.20;91.32;100727.69;5056726;28;20170;-72
2022/03/11 05:22:53;;;;;;;26.40;13.60;;;;;;;2.15;91.98;100734.09;5041116;28;19919;-74
2022/03/11 05:25:37;;;;;;;23.33;13.40;;;;;;;2.15;92.69;100731.44;5040418;28;20052;-75
2022/03/11 05:28:20;;;;;;;26.33;13.25;;;;;;;2.12;92.62;100736.88;5056562;28;20087;-74
2022/03/11 05:31:04;;;;;;;;;;;;;;;2.12;93.11;100737.75;5056296;28;20080;-73
2022/03/11 05:33:49;;;;;;;26.05;14.07;;;;;;;2.08;93.62;100724.84;5055508;28;19919;-73
2022/03/11 05:36:35;;;;;;;25.70;14.00;;;;;;;2.05;94.44;100731.09;5040563;28;20048;-74
2022/03/11 05:39:19;;;;;;;21.88;13.80;;;;;;;2.03;94.94;100735.59;5040480;28;20052;-74
2022/03/11 05:42:04;;;;;;;28.52;14.25;;;;;;;2.04;94.93;100753.06;5040484;28;20052;-74
2022/03/11 05:44:48;;;;;;;32.45;15.75;;;;;;;2.02;95.02;100754.06;5055441;28;20079;-74
2022/03/11 05:47:31;;;;;;;30.42;14.40;;;;;;;1.96;95.57;100752.59;5055510;28;20140;-74
2022/03/11 05:50:16;;;;;;;25.83;14.63;;;;;;;1.99;95.83;100755.06;5040300;28;20051;-73
2022/03/11 05:53:00;;;;;;;31.50;14.32;;;;;;;2.01;95.78;100758.50;5055646;28;20095;-74
2022/03/11 05:55:44;;;;;;;28.73;15.02;;;;;;;2.02;95.52;100749.66;5039936;28;20467;-75
2022/03/11 05:58:28;;;;;;;26.75;15.10;;;;;;;1.99;95.39;100757.69;5039905;28;20047;-72
2022/03/11 06:01:12;;;;;;;28.73;16.05;;;;;;;1.95;95.46;100753.53;5055258;28;20084;-74
2022/03/11 06:03:56;;;;;;;28.05;15.50;;;;;;;1.93;96.32;100758.03;5040005;28;20105;-74
2022/03/11 06:06:40;;;;;;;27.90;15.35;;;;;;;1.93;95.81;100758.03;5055010;28;20052;-74
2022/03/11 06:09:24;;;;;;;31.10;15.65;;;;;;;1.94;96.19;100759.72;5038480;28;20138;-74
2022/03/11 06:12:08;;;;;;;29.00;16.02;;;;;;;1.99;95.66;100762.97;5039675;28;20516;-74
2022/03/11 06:14:52;;;;;;;26.83;14.55;;;;;;;2.03;95.94;100759.25;5025712;28;20079;-74
2022/03/11 06:17:36;;;;;;;32.40;16.38;;;;;;;2.04;94.99;100744.31;5054911;28;20051;-72
2022/03/11 06:20:21;;;;;;;29.75;16.30;;;;;;;2.08;94.81;100757.22;5039770;28;20052;-74
2022/03/11 06:23:05;;;;;;;29.15;16.13;;;;;;;2.11;94.41;100757.09;5054619;28;20207;-74
2022/03/11 06:25:49;;;;;;;30.75;16.58;;;;;;;2.16;93.63;100755.06;5054644;28;20095;-74
2022/03/11 06:28:32;;;;;;;32.65;16.58;;;;;;;2.23;93.19;100755.56;5039618;28;20047;-74
2022/03/11 06:31:16;;;;;;;;;;;;;;;2.29;92.71;100756.09;5040016;28;20060;-72
2022/03/11 06:34:00;;;;;;;29.93;15.27;;;;;;;2.36;91.44;100762.75;5054457;28;19920;-75
2022/03/11 06:36:44;;;;;;;32.20;15.80;;;;;;;2.42;90.79;100751.91;5054511;28;20351;-73
2022/03/11 06:39:28;;;;;;;28.55;15.50;;;;;;;2.44;89.82;100748.25;5039394;28;20048;-73
2022/03/11 06:42:12;;;;;;;28.65;16.27;;;;;;;2.53;88.67;100739.03;5039312;28;20512;-74
2022/03/11 06:44:56;;;;;;;25.73;14.90;;;;;;;2.64;87.54;100744.56;5038926;28;20056;-74
2022/03/11 06:47:40;;;;;;;28.08;14.77;;;;;;;2.74;86.41;100751.84;5054105;28;20056;-74
2022/03/11 06:50:25;;;;;;;26.33;14.55;;;;;;;2.84;85.49;100757.50;5039164;28;20125;-74
2022/03/11 06:53:09;;;;;;;32.30;15.88;;;;;;;2.91;83.93;100756.19;5054057;28;20424;-72
2022/03/11 06:55:53;;;;;;;26.30;15.40;;;;;;;2.98;82.76;100754.94;5024939;28;20111;-74
2022/03/11 06:58:37;;;;;;;;;;;;;;;3.06;82.14;100758.00;5039496;28;20123;-71
2022/03/11 07:01:21;;;;;;;28.73;15.52;;;;;;;3.11;81.00;100762.06;5053882;28;20395;-74
2022/03/11 07:04:05;;;;;;;34.53;16.05;;;;;;;3.19;80.15;100751.09;5054225;28;20531;-73
2022/03/11 07:06:49;;;;;;;25.05;13.90;;;;;;;3.27;79.42;100754.16;5053817;28;20067;-74
2022/03/11 07:09:33;;;;;;;34.00;16.48;;;;;;;3.33;78.15;100759.09;5053999;28;20198;-75
2022/03/11 07:12:17;;;;;;;28.63;15.27;;;;;;;3.42;77.80;100754.13;5038925;28;20178;-74
2022/03/11 07:15:01;;;;;;;29.95;14.27;;;;;;;3.54;77.60;100763.13;5053800;28;20052;-73
2022/03/11 07:17:46;;;;;;;28.48;15.27;;;;;;;3.60;76.13;100768.03;5038589;28;20090;-75
2022/03/11 07:20:30;;;;;;;37.15;17.75;;;;;;;3.72;74.90;100764.69;5038285;28;20123;-75
2022/03/11 07:23:14;;;;;;;26.48;14.85;;;;;;;3.82;73.98;100757.94;5038741;28;20133;-74
2022/03/11 07:25:58;;;;;;;32.60;15.60;;;;;;;3.92;73.79;100767.00;5054107;28;20043;-74
2022/03/11 07:28:41;;;;;;;31.23;15.60;;;;;;;3.99;72.12;100770.97;5038543;28;20055;-75
2022/03/11 07:31:26;;;;;;;28.35;13.77;;;;;;;4.07;71.30;100774.84;5053978;28;20067;-73
2022/03/11 07:34:09;;;;;;;24.73;13.65;;;;;;;4.15;70.48;100771.78;5038473;28;20610;-75
2022/03/11 07:36:53;;;;;;;31.50;15.63;;;;;;;4.27;68.66;100773.69;5038187;28;20052;-74
2022/03/11 07:39:39;;;;;;;26.13;13.75;;;;;;;4.32;68.56;100769.81;5053532;28;20202;-74
2022/03/11 07:42:22;;;;;;;28.70;14.23;;;;;;;4.39;67.98;100771.13;5038393;28;20052;-74
2022/03/11 07:45:15;;;;;;;28.77;14.43;;;;;;;4.48;67.27;100769.72;5037931;28;20128;-74
2022/03/11 07:47:59;;;;;;;25.53;14.00;;;;;;;4.57;67.12;100774.44;5053567;28;20102;-75
2022/03/11 07:50:43;;;;;;;24.83;14.27;;;;;;;4.69;66.11;100771.88;5037901;28;20111;-74
2022/03/11 07:53:28;;;;;;;26.77;14.68;;;;;;;4.71;65.22;100767.38;5037800;28;20420;-75
2022/03/11 07:56:13;;;;;;;25.85;13.98;;;;;;;4.86;63.57;100762.94;5052873;28;20071;-74
2022/03/11 07:58:57;;;;;;;28.05;14.52;;;;;;;4.94;62.38;100758.84;5038206;28;20117;-74
2022/03/11 08:01:41;;;;;;;22.48;13.50;;;;;;;5.01;62.91;100762.81;5053139;28;20466;-75
2022/03/11 08:04:25;;;;;;;24.10;14.30;;;;;;;5.06;61.54;100758.06;5037626;28;20432;-73
2022/03/11 08:07:11;;;;;;;27.10;13.75;;;;;;;5.10;61.11;100759.56;5038019;28;20047;-75
2022/03/11 08:09:54;;;;;;;25.63;13.95;;;;;;;5.20;60.16;100761.50;5052722;28;20201;-74
2022/03/11 08:12:38;;;;;;;26.73;14.30;;;;;;;5.28;60.39;100753.94;5037587;28;20044;-74
2022/03/11 08:15:23;;;;;;;25.70;14.32;;;;;;;5.38;60.16;100755.06;5037655;28;20099;-75
2022/03/11 08:18:07;;;;;;;25.20;13.20;;;;;;;5.48;60.50;100756.13;5038164;28;20047;-73
2022/03/11 08:20:51;;;;;;;26.75;14.00;;;;;;;5.60;59.18;100755.34;5037727;28;20055;-74
2022/03/11 08:23:35;;;;;;;25.45;13.60;;;;;;;5.69;58.01;100754.72;5052722;28;20051;-73
2022/03/11 08:26:19;;;;;;;25.33;12.95;;;;;;;5.78;58.57;100754.13;5037589;28;20520;-75
2022/03/11 08:29:03;;;;;;;22.83;13.07;;;;;;;5.92;58.42;100740.84;5037778;28;20393;-74
2022/03/11 08:31:47;;;;;;;20.98;12.10;;;;;;;6.06;56.55;100740.72;5051725;28;20048;-73
2022/03/11 08:34:31;;;;;;;21.85;12.27;;;;;;;6.19;56.55;100744.25;5052369;28;20064;-75
2022/03/11 08:37:15;;;;;;;22.23;11.82;;;;;;;6.29;56.28;100744.47;5037402;28;20052;-75
2022/03/11 08:39:59;;;;;;;24.50;12.68;;;;;;;6.41;55.49;100739.16;5037544;28;20488;-75
2022/03/11 08:42:43;;;;;;;20.63;12.00;;;;;;;6.47;54.77;100738.72;5037234;28;20187;-74
2022/03/11 08:45:27;;;;;;;25.60;12.23;;;;;;;6.63;55.43;100734.06;5037074;28;20052;-75
2022/03/11 08:48:10;;;;;;;25.15;13.70;;;;;;;6.83;53.00;100725.53;5037481;28;20130;-74
2022/03/11 08:50:54;;;;;;;19.02;12.55;;;;;;;6.83;52.26;100730.84;5052749;28;20047;-75
2022/03/11 08:53:38;;;;;;;22.33;11.60;;;;;;;6.95;52.53;100716.69;5037087;28;20483;-75
2022/03/11 08:56:22;;;;;;;22.98;12.30;;;;;;;7.17;51.88;100724.78;5052645;28;20377;-73
2022/03/11 08:59:06;;;;;;;22.65;12.68;;;;;;;7.25;51.41;100727.72;5060151;22;20096;-76
2022/03/11 09:01:50;;;;;;;21.85;12.65;;;;;;;7.38;51.01;100728.50;5032596;28;20402;-76
2022/03/11 09:04:35;;;;;;;18.67;10.75;;;;;;;7.44;50.35;100728.06;5017634;28;20060;-76
2022/03/11 09:07:19;;;;;;;18.42;10.73;;;;;;;7.60;49.02;100728.63;5017363;28;20516;-77
2022/03/11 09:10:04;;;;;;;;;;;;;;;7.76;49.50;100731.81;5017734;28;20052;-76
2022/03/11 09:12:48;;;;;;;;;;;;;;;8.02;48.93;100736.00;5032984;28;19920;-76
2022/03/11 09:15:32;;;;;;;20.95;10.60;;;;;;;8.05;47.95;100738.44;5017434;28;19939;-76
2022/03/11 09:18:16;;;;;;;19.92;10.85;;;;;;;8.22;46.85;100738.84;5032245;28;20136;-76
2022/03/11 09:21:01;;;;;;;20.70;10.82;;;;;;;8.33;45.88;100732.69;5032424;28;20068;-76
2022/03/11 09:23:45;;;;;;;19.98;11.02;;;;;;;8.51;44.95;100732.13;5032488;28;20052;-76
2022/03/11 09:26:29;;;;;;;18.60;10.60;;;;;;;8.61;44.66;100730.44;5032358;28;20135;-76
2022/03/11 09:29:13;;;;;;;21.27;11.57;;;;;;;8.81;44.39;100727.06;5032034;28;20052;-76
2022/03/11 09:31:57;;;;;;;17.25;10.48;;;;;;;9.73;43.35;100732.72;5032323;28;20115;-76
2022/03/11 09:34:41;;;;;;;19.27;10.57;;;;;;;10.88;39.96;100723.50;5017264;28;20049;-76
2022/03/11 09:37:26;;;;;;;18.88;11.07;;;;;;;12.65;38.07;100720.28;5016878;28;20056;-76
2022/03/11 09:40:12;;;;;;;20.10;10.63;;;;;;;14.04;35.08;100726.88;5032467;28;20362;-75
2022/03/11 09:42:56;;;;;;;19.40;11.13;;;;;;;15.92;31.78;100716.50;5018058;28;20122;-76
2022/03/11 09:45:40;;;;;;;19.13;10.15;;;;;;;17.69;29.38;100720.41;5035635;28;20044;-76
2022/03/11 09:48:25;;;;;;;18.67;11.50;;;;;;;17.69;29.38;100720.41;5006945;28;20068;-76
2022/03/11 09:51:10;;;;;;;14.93;10.88;;;;;;;19.57;25.91;100713.38;5020646;28;20057;-76
2022/03/11 09:53:54;;;;;;;17.63;11.20;;;;;;;19.64;25.92;100713.44;5020681;28;20389;-76
2022/03/11 09:56:39;;;;;;;19.52;12.25;;;;;;;21.42;23.67;100709.84;5020230;28;20045;-76
2022/03/11 09:59:24;;;;;;;18.83;12.48;;;;;;;22.37;23.17;100705.00;5020113;28;20052;-76
2022/03/11 10:02:12;;;;;;;17.48;11.57;;;;;;;23.08;100.00;61774.03;5020408;28;20053;-76
2022/03/11 10:04:57;;;;;;;18.13;11.35;;;;;;;-139.48;100.00;61774.03;5020252;28;20048;-76
2022/03/11 10:07:41;;;;;;;15.82;11.98;;;;;;;-139.48;100.00;61774.03;5020638;28;20094;-74
2022/03/11 10:10:25;;;;;;;15.15;12.25;;;;;;;-139.48;100.00;61774.03;5006609;28;20122;-76
2022/03/11 10:13:11;;;;;;;14.95;12.32;;;;;;;-139.48;100.00;61774.03;5019931;28;20125;-76
2022/03/11 10:15:55;;;;;;;16.55;12.70;;;;;;;-139.48;100.00;61774.03;5020102;28;20056;-76
2022/03/11 10:18:39;;;;;;;15.70;12.02;;;;;;;-139.48;100.00;61774.03;5019963;28;20056;-76
2022/03/11 10:21:45;;;;;;;18.55;13.05;;;;;;;-139.48;100.00;61774.03;5005926;28;20056;-75
2022/03/11 10:24:28;;;;;;;16.92;12.65;;;;;;;-139.48;100.00;61774.03;5019754;28;20043;-75
2022/03/11 10:27:12;;;;;;;17.83;12.27;;;;;;;-139.48;100.00;61774.03;5019588;28;20077;-76
2022/03/11 10:30:02;;;;;;;17.83;12.88;;;;;;;23.05;22.28;100705.34;5019864;28;20075;-76
2022/03/11 10:32:53;;;;;;;17.98;12.48;;;;;;;23.70;20.15;100686.03;5019651;28;20043;-75
2022/03/11 10:35:40;;;;;;;21.35;12.15;;;;;;;25.70;20.00;100685.09;5019464;28;20175;-76
2022/03/11 10:38:30;;;;;;;15.68;12.77;;;;;;;23.00;21.03;100686.09;5019515;28;20588;-75
2022/03/11 10:41:17;;;;;;;16.42;12.32;;;;;;;24.28;20.16;100676.63;5020432;28;20060;-76
2022/03/11 10:44:04;;;;;;;15.60;12.48;;;;;;;26.67;18.68;100671.75;5005848;28;20118;-74
2022/03/11 10:46:49;;;;;;;18.13;13.13;;;;;;;25.88;18.81;100673.28;5019330;28;20430;-73
2022/03/11 10:49:34;;;;;;;15.27;12.50;;;;;;;27.48;18.06;100673.28;5019302;28;20476;-73
2022/03/11 10:52:50;;;;;;;18.45;12.55;;;;;;;25.77;18.56;100674.06;5034182;28;20413;-73
2022/03/11 10:55:38;;;;;;;16.27;12.52;;;;;;;26.56;18.51;100671.75;4985434;28;20095;-73
2022/03/11 10:58:27;;;;;;;16.80;12.13;;;;;;;27.71;17.28;100664.94;5018899;28;20132;-75
2022/03/11 11:01:13;;;;;;;16.13;12.75;;;;;;;27.49;17.40;100660.41;5019233;28;20110;-73
2022/03/11 11:03:57;;;;;;;16.15;12.20;;;;;;;27.60;17.67;100663.09;5034288;28;20057;-73
2022/03/11 11:06:41;;;;;;;18.77;12.52;;;;;;;27.68;17.55;100654.50;5020963;28;20052;-75
2022/03/11 11:09:26;;;;;;;17.02;13.38;;;;;;;27.71;17.54;100664.94;5005299;28;20593;-75
2022/03/11 11:12:14;;;;;;;14.82;12.80;;;;;;;26.32;18.40;100662.69;5035018;28;20099;-74
2022/03/11 11:15:22;;;;;;;14.98;12.15;;;;;;;27.50;17.28;100645.66;5006060;28;20084;-75
2022/03/11 11:18:13;;;;;;;17.48;12.57;;;;;;;27.41;17.41;100636.97;4993693;28;20437;-72
2022/03/11 11:20:58;;;;;;;14.38;11.63;;;;;;;26.42;18.48;100642.94;5019237;28;20068;-73
2022/03/11 11:23:42;;;;;;;16.52;12.82;;;;;;;27.31;17.37;100634.03;5019087;28;20048;-73
2022/03/11 11:26:27;;;;;;;15.90;11.90;;;;;;;28.08;17.25;100627.84;5004903;28;20071;-74
2022/03/11 11:29:11;;;;;;;15.00;12.82;;;;;;;27.84;17.08;100618.09;5018652;28;20095;-75
2022/03/11 11:31:55;;;;;;;15.02;12.10;;;;;;;27.77;17.49;100613.84;5018682;28;20116;-72
2022/03/11 11:34:39;;;;;;;16.33;12.45;;;;;;;28.43;16.63;100603.72;5004884;28;20064;-75
2022/03/11 11:37:39;;;;;;;14.73;11.18;;;;;;;27.64;17.33;100612.22;5033676;28;20044;-74
2022/03/11 11:40:28;;;;;;;15.15;11.98;;;;;;;28.05;17.57;100617.34;5035126;28;20056;-73
2022/03/11 11:43:11;;;;;;;14.27;12.20;;;;;;;28.05;17.57;100617.34;5033679;28;20393;-73
2022/03/11 11:46:02;;;;;;;16.15;11.90;;;;;;;30.09;15.54;100590.88;5018610;28;20183;-72
2022/03/11 11:48:52;;;;;;;15.30;12.10;;;;;;;31.26;14.73;100583.84;5033292;28;20409;-73
2022/03/11 11:51:36;;;;;;;14.60;11.73;;;;;;;30.30;15.20;100584.41;5033405;28;20080;-73
2022/03/11 11:54:32;;;;;;;17.35;11.75;;;;;;;31.16;14.55;100578.31;5018442;28;20124;-73
2022/03/11 11:57:17;;;;;;;15.55;12.00;;;;;;;31.53;14.65;100574.28;5018253;28;20468;-73
2022/03/11 12:00:05;;;;;;;15.38;12.93;;;;;;;31.02;14.53;100563.34;5018632;28;20405;-73
2022/03/11 12:02:49;;;;;;;14.57;12.10;;;;;;;32.04;14.34;100555.81;5018208;28;20106;-73
2022/03/11 12:05:48;;;;;;;15.52;11.98;;;;;;;31.18;15.14;100548.56;5033194;28;20080;-72
2022/03/11 12:08:32;;;;;;;13.18;11.73;;;;;;;31.31;14.70;100554.41;5032779;28;20079;-72
2022/03/11 12:11:38;;;;;;;15.00;12.32;;;;;;;30.20;14.83;100551.34;5033609;28;20084;-73
2022/03/11 12:14:22;;;;;;;13.35;11.55;;;;;;;31.27;14.43;100536.72;5018201;28;20102;-73
2022/03/11 12:17:07;;;;;;;15.00;11.65;;;;;;;31.43;14.52;100541.19;5004257;28;20044;-73
2022/03/11 12:19:51;;;;;;;23.75;12.65;;;;;;;31.33;15.43;100540.31;5018081;28;20059;-73
2022/03/11 12:22:36;;;;;;;15.60;12.50;;;;;;;30.08;15.23;100526.81;5017995;28;20551;-73
2022/03/11 12:25:26;;;;;;;19.73;12.00;;;;;;;30.87;15.11;100525.59;5017746;28;20045;-73
2022/03/11 12:28:16;;;;;;;13.80;11.40;;;;;;;30.25;15.16;100524.69;5017654;28;20052;-73
2022/03/11 12:31:09;;;;;;;16.25;13.05;;;;;;;29.27;16.47;100511.78;5018159;28;20057;-73
2022/03/11 12:33:54;;;;;;;21.48;12.35;;;;;;;29.27;16.47;100511.78;5018345;28;20047;-73
2022/03/11 12:36:38;;;;;;;15.40;11.95;;;;;;;25.67;18.40;100501.75;5017807;28;20068;-73
2022/03/11 12:39:27;;;;;;;16.33;12.05;;;;;;;25.62;18.63;100502.47;5032655;28;20186;-73
2022/03/11 12:42:11;;;;;;;17.80;11.35;;;;;;;25.30;18.96;100486.63;5017894;28;20048;-73